sensor_id;sensor_type;location;lat;lon;timestamp;temperature;humidity
12688;DHT22;6408;59.388;17.798;2023-04-03T00:00:30;-2.80;99.90
12688;DHT22;6408;59.388;17.798;2023-04-03T00:06:25;-2.70;99.90
12688;DHT22;6408;59.388;17.798;2023-04-03T00:09:14;-2.70;99.90
12688;DHT22;6408;59.388;17.798;2023-04-03T00:11:48;-2.80;99.90
12688;DHT22;6408;59.388;17.798;2023-04-03T00:14:29;-2.80;99.90
12688;DHT22;6408;59.388;17.798;2023-04-03T00:16:57;-2.80;99.90
12688;DHT22;6408;59.388;17.798;2023-04-03T00:23:25;-2.80;99.90
12688;DHT22;6408;59.388;17.798;2023-04-03T00:29:30;-2.80;99.90
12688;DHT22;6408;59.388;17.798;2023-04-03T00:32:18;-2.80;99.90
12688;DHT22;6408;59.388;17.798;2023-04-03T04:16:14;-3.70;99.90
12688;DHT22;6408;59.388;17.798;2023-04-03T04:18:42;-3.70;99.90
12688;DHT22;6408;59.388;17.798;2023-04-03T04:21:10;-3.60;99.90
12688;DHT22;6408;59.388;17.798;2023-04-03T04:23:38;-3.50;99.90
12688;DHT22;6408;59.388;17.798;2023-04-03T04:26:05;-3.40;99.90
12688;DHT22;6408;59.388;17.798;2023-04-03T04:28:33;-3.40;99.90
12688;DHT22;6408;59.388;17.798;2023-04-03T04:31:01;-3.30;99.90
12688;DHT22;6408;59.388;17.798;2023-04-03T04:33:31;-3.30;99.90
12688;DHT22;6408;59.388;17.798;2023-04-03T04:35:58;-3.30;99.90
12688;DHT22;6408;59.388;17.798;2023-04-03T04:38:26;-3.30;99.90
12688;DHT22;6408;59.388;17.798;2023-04-03T04:40:54;-3.20;99.90
12688;DHT22;6408;59.388;17.798;2023-04-03T04:43:21;-2.80;99.90
12688;DHT22;6408;59.388;17.798;2023-04-03T04:46:00;-2.50;99.90
12688;DHT22;6408;59.388;17.798;2023-04-03T04:48:30;-2.40;99.90
12688;DHT22;6408;59.388;17.798;2023-04-03T04:50:57;-1.80;99.90
12688;DHT22;6408;59.388;17.798;2023-04-03T04:53:25;-1.60;99.90
12688;DHT22;6408;59.388;17.798;2023-04-03T04:55:53;-1.50;99.90
12688;DHT22;6408;59.388;17.798;2023-04-03T04:58:21;-1.10;99.90
12688;DHT22;6408;59.388;17.798;2023-04-03T05:00:49;-0.40;99.90
12688;DHT22;6408;59.388;17.798;2023-04-03T05:03:16;0.90;99.90
12688;DHT22;6408;59.388;17.798;2023-04-03T05:05:46;2.20;99.90
12688;DHT22;6408;59.388;17.798;2023-04-03T05:08:14;3.10;99.90
12688;DHT22;6408;59.388;17.798;2023-04-03T05:10:42;3.90;99.90
12688;DHT22;6408;59.388;17.798;2023-04-03T05:13:10;4.30;99.90
12688;DHT22;6408;59.388;17.798;2023-04-03T05:15:37;5.10;99.90
12688;DHT22;6408;59.388;17.798;2023-04-03T05:18:05;5.80;99.90
12688;DHT22;6408;59.388;17.798;2023-04-03T05:20:33;6.50;99.90
12688;DHT22;6408;59.388;17.798;2023-04-03T05:23:04;6.90;99.90
12688;DHT22;6408;59.388;17.798;2023-04-03T05:25:32;7.20;99.90
12688;DHT22;6408;59.388;17.798;2023-04-03T05:28:00;7.70;99.90
12688;DHT22;6408;59.388;17.798;2023-04-03T05:30:27;8.20;99.90
12688;DHT22;6408;59.388;17.798;2023-04-03T05:32:55;8.50;99.90
12688;DHT22;6408;59.388;17.798;2023-04-03T05:35:23;9.20;99.90
12688;DHT22;6408;59.388;17.798;2023-04-03T05:37:51;9.80;99.90
12688;DHT22;6408;59.388;17.798;2023-04-03T05:40:20;9.90;99.90
12688;DHT22;6408;59.388;17.798;2023-04-03T05:42:48;10.30;99.90
12688;DHT22;6408;59.388;17.798;2023-04-03T05:45:16;10.80;99.90
12688;DHT22;6408;59.388;17.798;2023-04-03T05:47:43;10.70;99.90
12688;DHT22;6408;59.388;17.798;2023-04-03T05:50:11;11.10;99.90
12688;DHT22;6408;59.388;17.798;2023-04-03T05:52:42;11.70;99.90
12688;DHT22;6408;59.388;17.798;2023-04-03T05:55:11;12.40;99.90
12688;DHT22;6408;59.388;17.798;2023-04-03T05:57:41;12.50;99.90
12688;DHT22;6408;59.388;17.798;2023-04-03T06:00:12;13.40;99.90
12688;DHT22;6408;59.388;17.798;2023-04-03T06:02:41;13.80;99.90
12688;DHT22;6408;59.388;17.798;2023-04-03T06:05:09;13.40;99.90
12688;DHT22;6408;59.388;17.798;2023-04-03T06:07:38;14.70;99.90
12688;DHT22;6408;59.388;17.798;2023-04-03T06:10:07;15.50;99.90
12688;DHT22;6408;59.388;17.798;2023-04-03T06:12:36;16.10;99.90
12688;DHT22;6408;59.388;17.798;2023-04-03T06:15:07;17.30;99.40
12688;DHT22;6408;59.388;17.798;2023-04-03T06:17:36;16.90;98.50
12688;DHT22;6408;59.388;17.798;2023-04-03T06:20:04;18.20;97.40
12688;DHT22;6408;59.388;17.798;2023-04-03T06:22:32;19.20;95.60
12688;DHT22;6408;59.388;17.798;2023-04-03T06:25:00;19.50;94.10
12688;DHT22;6408;59.388;17.798;2023-04-03T06:27:28;18.70;93.30
12688;DHT22;6408;59.388;17.798;2023-04-03T06:29:56;18.50;93.50
12688;DHT22;6408;59.388;17.798;2023-04-03T06:32:26;19.60;92.90
12688;DHT22;6408;59.388;17.798;2023-04-03T06:34:53;21.00;91.40
12688;DHT22;6408;59.388;17.798;2023-04-03T06:37:23;20.90;90.60
12688;DHT22;6408;59.388;17.798;2023-04-03T06:39:51;20.40;90.30
12688;DHT22;6408;59.388;17.798;2023-04-03T06:42:19;20.10;90.20
12688;DHT22;6408;59.388;17.798;2023-04-03T06:44:47;21.10;88.70
12688;DHT22;6408;59.388;17.798;2023-04-03T06:47:16;21.90;87.10
12688;DHT22;6408;59.388;17.798;2023-04-03T06:49:46;22.20;85.50
12688;DHT22;6408;59.388;17.798;2023-04-03T06:52:14;21.90;84.50
12688;DHT22;6408;59.388;17.798;2023-04-03T06:54:42;22.00;83.90
12688;DHT22;6408;59.388;17.798;2023-04-03T06:57:10;21.20;82.30
12688;DHT22;6408;59.388;17.798;2023-04-03T06:59:38;21.20;83.50
12688;DHT22;6408;59.388;17.798;2023-04-03T07:02:06;21.80;83.20
12688;DHT22;6408;59.388;17.798;2023-04-03T07:04:34;22.50;81.10
12688;DHT22;6408;59.388;17.798;2023-04-03T07:07:03;22.40;80.50
12688;DHT22;6408;59.388;17.798;2023-04-03T07:09:31;22.20;79.90
12688;DHT22;6408;59.388;17.798;2023-04-03T07:11:59;22.10;80.00
12688;DHT22;6408;59.388;17.798;2023-04-03T07:14:27;23.40;79.60
12688;DHT22;6408;59.388;17.798;2023-04-03T07:16:55;23.50;78.00
12688;DHT22;6408;59.388;17.798;2023-04-03T07:19:22;24.60;76.90
12688;DHT22;6408;59.388;17.798;2023-04-03T07:21:53;25.50;75.70
12688;DHT22;6408;59.388;17.798;2023-04-03T07:24:23;25.50;73.50
12688;DHT22;6408;59.388;17.798;2023-04-03T07:26:52;24.90;74.40
12688;DHT22;6408;59.388;17.798;2023-04-03T07:29:20;24.60;72.60
12688;DHT22;6408;59.388;17.798;2023-04-03T07:31:48;24.50;73.70
12688;DHT22;6408;59.388;17.798;2023-04-03T07:34:16;24.40;72.90
12688;DHT22;6408;59.388;17.798;2023-04-03T07:36:44;23.90;70.30
12688;DHT22;6408;59.388;17.798;2023-04-03T07:39:12;24.00;71.50
12688;DHT22;6408;59.388;17.798;2023-04-03T07:41:42;24.30;71.60
12688;DHT22;6408;59.388;17.798;2023-04-03T07:44:11;24.60;71.00
12688;DHT22;6408;59.388;17.798;2023-04-03T07:46:39;24.50;70.50
12688;DHT22;6408;59.388;17.798;2023-04-03T07:49:08;26.00;69.40
12688;DHT22;6408;59.388;17.798;2023-04-03T07:51:35;25.80;67.70
12688;DHT22;6408;59.388;17.798;2023-04-03T07:54:03;25.00;68.10
12688;DHT22;6408;59.388;17.798;2023-04-03T07:56:31;24.90;68.00
12688;DHT22;6408;59.388;17.798;2023-04-03T07:59:01;25.80;66.60
12688;DHT22;6408;59.388;17.798;2023-04-03T08:01:28;25.40;66.60
12688;DHT22;6408;59.388;17.798;2023-04-03T08:03:58;25.70;64.60
12688;DHT22;6408;59.388;17.798;2023-04-03T08:06:26;24.90;65.50
12688;DHT22;6408;59.388;17.798;2023-04-03T08:08:55;24.70;64.90
12688;DHT22;6408;59.388;17.798;2023-04-03T08:11:22;23.90;64.80
12688;DHT22;6408;59.388;17.798;2023-04-03T08:13:52;23.10;66.30
12688;DHT22;6408;59.388;17.798;2023-04-03T08:16:23;23.60;66.00
12688;DHT22;6408;59.388;17.798;2023-04-03T08:18:53;24.00;65.90
12688;DHT22;6408;59.388;17.798;2023-04-03T08:21:20;24.40;66.30
12688;DHT22;6408;59.388;17.798;2023-04-03T08:23:49;24.00;63.60
12688;DHT22;6408;59.388;17.798;2023-04-03T08:26:19;25.30;64.40
12688;DHT22;6408;59.388;17.798;2023-04-03T08:28:47;25.90;64.30
12688;DHT22;6408;59.388;17.798;2023-04-03T08:31:17;25.90;64.00
12688;DHT22;6408;59.388;17.798;2023-04-03T08:33:47;25.10;64.20
12688;DHT22;6408;59.388;17.798;2023-04-03T08:36:19;25.10;65.00
12688;DHT22;6408;59.388;17.798;2023-04-03T08:38:48;25.50;63.70
12688;DHT22;6408;59.388;17.798;2023-04-03T08:41:20;26.00;63.60
12688;DHT22;6408;59.388;17.798;2023-04-03T08:44:11;25.30;62.70
12688;DHT22;6408;59.388;17.798;2023-04-03T08:46:52;24.90;63.00
12688;DHT22;6408;59.388;17.798;2023-04-03T08:49:26;24.40;62.70
12688;DHT22;6408;59.388;17.798;2023-04-03T08:51:56;25.10;62.60
12688;DHT22;6408;59.388;17.798;2023-04-03T08:54:28;25.90;61.70
12688;DHT22;6408;59.388;17.798;2023-04-03T08:56:58;25.40;60.10
12688;DHT22;6408;59.388;17.798;2023-04-03T08:59:31;24.40;61.20
12688;DHT22;6408;59.388;17.798;2023-04-03T09:02:03;23.70;60.90
12688;DHT22;6408;59.388;17.798;2023-04-03T09:04:34;23.50;62.80
12688;DHT22;6408;59.388;17.798;2023-04-03T09:07:08;24.30;62.00
12688;DHT22;6408;59.388;17.798;2023-04-03T09:09:40;24.80;62.30
12688;DHT22;6408;59.388;17.798;2023-04-03T09:12:15;23.80;61.80
12688;DHT22;6408;59.388;17.798;2023-04-03T09:14:49;22.40;63.00
12688;DHT22;6408;59.388;17.798;2023-04-03T09:17:30;21.60;64.10
12688;DHT22;6408;59.388;17.798;2023-04-03T09:20:14;20.00;65.80
12688;DHT22;6408;59.388;17.798;2023-04-03T09:22:44;18.70;69.60
12688;DHT22;6408;59.388;17.798;2023-04-03T09:25:14;18.30;71.10
12688;DHT22;6408;59.388;17.798;2023-04-03T09:27:42;16.80;71.30
12688;DHT22;6408;59.388;17.798;2023-04-03T09:30:14;15.20;74.40
12688;DHT22;6408;59.388;17.798;2023-04-03T09:32:45;13.10;75.40
12688;DHT22;6408;59.388;17.798;2023-04-03T09:35:21;12.20;78.40
12688;DHT22;6408;59.388;17.798;2023-04-03T09:37:51;11.00;82.50
12688;DHT22;6408;59.388;17.798;2023-04-03T09:40:31;10.30;82.20
12688;DHT22;6408;59.388;17.798;2023-04-03T09:43:02;10.00;86.50
12688;DHT22;6408;59.388;17.798;2023-04-03T09:45:32;9.70;87.80
12688;DHT22;6408;59.388;17.798;2023-04-03T09:48:12;9.60;89.30
12688;DHT22;6408;59.388;17.798;2023-04-03T09:50:56;9.30;89.20
12688;DHT22;6408;59.388;17.798;2023-04-03T09:53:29;8.90;90.00
12688;DHT22;6408;59.388;17.798;2023-04-03T09:55:57;8.80;90.00
12688;DHT22;6408;59.388;17.798;2023-04-03T09:58:26;8.70;90.10
12688;DHT22;6408;59.388;17.798;2023-04-03T10:00:55;8.70;90.00
12688;DHT22;6408;59.388;17.798;2023-04-03T10:03:27;8.20;90.30
12688;DHT22;6408;59.388;17.798;2023-04-03T10:05:57;8.20;90.60
12688;DHT22;6408;59.388;17.798;2023-04-03T10:08:28;8.50;91.20
12688;DHT22;6408;59.388;17.798;2023-04-03T10:11:08;8.50;90.00
12688;DHT22;6408;59.388;17.798;2023-04-03T10:13:37;8.20;90.40
12688;DHT22;6408;59.388;17.798;2023-04-03T10:16:18;7.70;90.10
12688;DHT22;6408;59.388;17.798;2023-04-03T10:18:53;7.80;90.90
12688;DHT22;6408;59.388;17.798;2023-04-03T10:21:35;8.00;91.00
12688;DHT22;6408;59.388;17.798;2023-04-03T10:24:10;8.00;90.40
12688;DHT22;6408;59.388;17.798;2023-04-03T10:26:45;8.10;90.20
12688;DHT22;6408;59.388;17.798;2023-04-03T10:29:32;8.20;88.60
12688;DHT22;6408;59.388;17.798;2023-04-03T10:32:14;8.40;88.50
12688;DHT22;6408;59.388;17.798;2023-04-03T10:34:45;8.60;87.30
12688;DHT22;6408;59.388;17.798;2023-04-03T10:37:22;8.70;88.30
12688;DHT22;6408;59.388;17.798;2023-04-03T10:39:56;8.40;85.50
12688;DHT22;6408;59.388;17.798;2023-04-03T10:42:31;8.50;84.90
12688;DHT22;6408;59.388;17.798;2023-04-03T10:45:14;8.20;85.00
12688;DHT22;6408;59.388;17.798;2023-04-03T10:47:50;8.10;87.00
12688;DHT22;6408;59.388;17.798;2023-04-03T10:50:29;8.20;83.70
12688;DHT22;6408;59.388;17.798;2023-04-03T10:53:04;8.10;86.90
12688;DHT22;6408;59.388;17.798;2023-04-03T10:55:37;8.10;88.80
12688;DHT22;6408;59.388;17.798;2023-04-03T10:58:07;8.40;89.10
12688;DHT22;6408;59.388;17.798;2023-04-03T11:00:47;8.30;84.80
12688;DHT22;6408;59.388;17.798;2023-04-03T11:03:24;8.00;82.60
12688;DHT22;6408;59.388;17.798;2023-04-03T11:05:55;8.00;80.80
12688;DHT22;6408;59.388;17.798;2023-04-03T11:08:28;8.10;80.30
12688;DHT22;6408;59.388;17.798;2023-04-03T11:11:04;7.90;80.20
12688;DHT22;6408;59.388;17.798;2023-04-03T11:13:35;8.00;82.60
12688;DHT22;6408;59.388;17.798;2023-04-03T11:16:06;7.90;80.40
12688;DHT22;6408;59.388;17.798;2023-04-03T11:18:37;7.80;80.90
12688;DHT22;6408;59.388;17.798;2023-04-03T11:21:11;7.80;81.90
12688;DHT22;6408;59.388;17.798;2023-04-03T11:23:42;8.20;84.00
12688;DHT22;6408;59.388;17.798;2023-04-03T11:26:12;8.20;80.40
12688;DHT22;6408;59.388;17.798;2023-04-03T11:28:41;8.20;79.90
12688;DHT22;6408;59.388;17.798;2023-04-03T11:31:19;8.20;80.00
12688;DHT22;6408;59.388;17.798;2023-04-03T11:33:58;8.10;79.00
12688;DHT22;6408;59.388;17.798;2023-04-03T11:36:34;7.80;78.60
12688;DHT22;6408;59.388;17.798;2023-04-03T11:39:18;7.70;78.90
12688;DHT22;6408;59.388;17.798;2023-04-03T11:41:48;7.80;79.30
12688;DHT22;6408;59.388;17.798;2023-04-03T11:44:32;8.00;79.00
12688;DHT22;6408;59.388;17.798;2023-04-03T11:47:03;8.10;80.40
12688;DHT22;6408;59.388;17.798;2023-04-03T11:49:57;8.20;82.10
12688;DHT22;6408;59.388;17.798;2023-04-03T11:59:21;7.80;77.20
12688;DHT22;6408;59.388;17.798;2023-04-03T12:01:50;7.60;79.10
12688;DHT22;6408;59.388;17.798;2023-04-03T12:04:19;7.60;79.00
12688;DHT22;6408;59.388;17.798;2023-04-03T12:07:12;7.80;82.20
12688;DHT22;6408;59.388;17.798;2023-04-03T12:10:02;7.80;80.80
12688;DHT22;6408;59.388;17.798;2023-04-03T12:12:38;8.10;84.20
12688;DHT22;6408;59.388;17.798;2023-04-03T12:18:43;7.90;82.60
12688;DHT22;6408;59.388;17.798;2023-04-03T12:21:12;8.10;81.50
12688;DHT22;6408;59.388;17.798;2023-04-03T12:23:59;7.90;81.60
12688;DHT22;6408;59.388;17.798;2023-04-03T12:26:31;7.80;81.00
12688;DHT22;6408;59.388;17.798;2023-04-03T12:29:02;7.90;82.00
12688;DHT22;6408;59.388;17.798;2023-04-03T12:31:44;8.00;81.20
12688;DHT22;6408;59.388;17.798;2023-04-03T12:34:42;8.10;81.30
12688;DHT22;6408;59.388;17.798;2023-04-03T12:37:23;7.80;80.80
12688;DHT22;6408;59.388;17.798;2023-04-03T12:40:04;7.70;81.10
12688;DHT22;6408;59.388;17.798;2023-04-03T12:43:02;7.60;79.60
12688;DHT22;6408;59.388;17.798;2023-04-03T12:45:40;7.40;81.30
12688;DHT22;6408;59.388;17.798;2023-04-03T12:48:14;7.50;81.10
12688;DHT22;6408;59.388;17.798;2023-04-03T12:50:46;7.60;80.80
12688;DHT22;6408;59.388;17.798;2023-04-03T12:53:18;7.50;80.40
12688;DHT22;6408;59.388;17.798;2023-04-03T12:55:47;7.50;81.10
12688;DHT22;6408;59.388;17.798;2023-04-03T12:58:16;7.60;82.30
12688;DHT22;6408;59.388;17.798;2023-04-03T13:00:44;7.60;80.50
12688;DHT22;6408;59.388;17.798;2023-04-03T13:03:23;7.50;80.70
12688;DHT22;6408;59.388;17.798;2023-04-03T13:05:55;7.30;81.10
12688;DHT22;6408;59.388;17.798;2023-04-03T13:08:24;7.40;81.20
12688;DHT22;6408;59.388;17.798;2023-04-03T13:10:55;7.30;82.20
12688;DHT22;6408;59.388;17.798;2023-04-03T13:13:24;7.30;82.40
12688;DHT22;6408;59.388;17.798;2023-04-03T13:15:53;7.40;83.70
12688;DHT22;6408;59.388;17.798;2023-04-03T13:18:23;7.60;83.40
12688;DHT22;6408;59.388;17.798;2023-04-03T13:20:51;7.80;82.90
12688;DHT22;6408;59.388;17.798;2023-04-03T13:23:21;7.90;82.00
12688;DHT22;6408;59.388;17.798;2023-04-03T13:25:50;8.00;81.60
12688;DHT22;6408;59.388;17.798;2023-04-03T13:28:21;7.70;79.70
12688;DHT22;6408;59.388;17.798;2023-04-03T13:30:59;7.30;79.80
12688;DHT22;6408;59.388;17.798;2023-04-03T13:33:29;7.20;82.00
12688;DHT22;6408;59.388;17.798;2023-04-03T13:36:03;7.10;81.40
12688;DHT22;6408;59.388;17.798;2023-04-03T13:38:34;7.00;82.90
12688;DHT22;6408;59.388;17.798;2023-04-03T13:41:04;7.00;83.60
12688;DHT22;6408;59.388;17.798;2023-04-03T13:43:37;7.10;83.80
12688;DHT22;6408;59.388;17.798;2023-04-03T13:46:22;7.20;85.30
12688;DHT22;6408;59.388;17.798;2023-04-03T13:48:53;7.20;82.80
12688;DHT22;6408;59.388;17.798;2023-04-03T13:51:23;7.30;85.00
12688;DHT22;6408;59.388;17.798;2023-04-03T13:53:55;7.40;84.80
12688;DHT22;6408;59.388;17.798;2023-04-03T13:56:34;7.40;83.90
12688;DHT22;6408;59.388;17.798;2023-04-03T13:59:20;7.40;83.50
12688;DHT22;6408;59.388;17.798;2023-04-03T14:01:51;7.40;83.90
12688;DHT22;6408;59.388;17.798;2023-04-03T14:04:21;7.50;83.90
12688;DHT22;6408;59.388;17.798;2023-04-03T14:06:49;7.30;83.30
12688;DHT22;6408;59.388;17.798;2023-04-03T14:09:21;7.20;83.60
12688;DHT22;6408;59.388;17.798;2023-04-03T14:11:50;7.20;82.50
12688;DHT22;6408;59.388;17.798;2023-04-03T14:14:21;7.10;83.70
12688;DHT22;6408;59.388;17.798;2023-04-03T14:16:54;7.20;84.00
12688;DHT22;6408;59.388;17.798;2023-04-03T14:19:24;7.30;84.20
12688;DHT22;6408;59.388;17.798;2023-04-03T14:21:54;7.30;85.00
12688;DHT22;6408;59.388;17.798;2023-04-03T14:24:24;7.40;86.10
12688;DHT22;6408;59.388;17.798;2023-04-03T14:26:54;7.20;82.30
12688;DHT22;6408;59.388;17.798;2023-04-03T14:29:23;6.90;81.40
12688;DHT22;6408;59.388;17.798;2023-04-03T14:31:51;6.80;82.50
12688;DHT22;6408;59.388;17.798;2023-04-03T14:34:19;6.90;83.40
12688;DHT22;6408;59.388;17.798;2023-04-03T14:36:46;6.90;81.60
12688;DHT22;6408;59.388;17.798;2023-04-03T14:39:17;6.80;82.20
12688;DHT22;6408;59.388;17.798;2023-04-03T14:41:47;6.70;80.90
12688;DHT22;6408;59.388;17.798;2023-04-03T14:44:14;6.70;79.70
12688;DHT22;6408;59.388;17.798;2023-04-03T14:46:43;6.70;80.20
12688;DHT22;6408;59.388;17.798;2023-04-03T14:49:14;6.90;81.70
12688;DHT22;6408;59.388;17.798;2023-04-03T14:51:42;6.80;77.20
12688;DHT22;6408;59.388;17.798;2023-04-03T14:54:13;6.70;77.00
12688;DHT22;6408;59.388;17.798;2023-04-03T14:56:42;6.60;79.10
12688;DHT22;6408;59.388;17.798;2023-04-03T14:59:13;6.50;76.20
12688;DHT22;6408;59.388;17.798;2023-04-03T15:01:43;6.50;75.30
12688;DHT22;6408;59.388;17.798;2023-04-03T15:04:12;6.60;75.50
12688;DHT22;6408;59.388;17.798;2023-04-03T15:06:41;6.50;74.50
12688;DHT22;6408;59.388;17.798;2023-04-03T15:09:18;6.40;74.00
12688;DHT22;6408;59.388;17.798;2023-04-03T15:11:47;6.50;74.70
12688;DHT22;6408;59.388;17.798;2023-04-03T15:14:17;6.40;74.20
12688;DHT22;6408;59.388;17.798;2023-04-03T15:16:45;6.40;74.70
12688;DHT22;6408;59.388;17.798;2023-04-03T15:19:12;6.30;76.10
12688;DHT22;6408;59.388;17.798;2023-04-03T15:21:40;6.30;76.00
12688;DHT22;6408;59.388;17.798;2023-04-03T15:24:09;6.40;75.40
12688;DHT22;6408;59.388;17.798;2023-04-03T15:26:37;6.40;74.80
12688;DHT22;6408;59.388;17.798;2023-04-03T15:29:05;6.30;74.80
12688;DHT22;6408;59.388;17.798;2023-04-03T15:31:35;6.30;73.60
12688;DHT22;6408;59.388;17.798;2023-04-03T15:34:03;6.30;73.30
12688;DHT22;6408;59.388;17.798;2023-04-03T15:36:30;6.30;74.40
12688;DHT22;6408;59.388;17.798;2023-04-03T15:38:58;6.30;74.50
12688;DHT22;6408;59.388;17.798;2023-04-03T15:41:26;6.30;76.10
12688;DHT22;6408;59.388;17.798;2023-04-03T15:43:54;6.40;75.70
12688;DHT22;6408;59.388;17.798;2023-04-03T15:46:21;6.20;74.50
12688;DHT22;6408;59.388;17.798;2023-04-03T15:48:52;6.10;74.70
12688;DHT22;6408;59.388;17.798;2023-04-03T15:51:19;5.80;74.90
12688;DHT22;6408;59.388;17.798;2023-04-03T15:53:47;5.70;75.20
12688;DHT22;6408;59.388;17.798;2023-04-03T15:56:15;5.80;76.10
12688;DHT22;6408;59.388;17.798;2023-04-03T15:58:42;5.70;75.40
12688;DHT22;6408;59.388;17.798;2023-04-03T16:01:10;5.70;76.40
12688;DHT22;6408;59.388;17.798;2023-04-03T16:03:40;5.60;75.70
12688;DHT22;6408;59.388;17.798;2023-04-03T16:06:12;5.60;77.10
12688;DHT22;6408;59.388;17.798;2023-04-03T16:08:40;5.50;75.90
12688;DHT22;6408;59.388;17.798;2023-04-03T16:11:08;5.60;77.20
12688;DHT22;6408;59.388;17.798;2023-04-03T16:13:36;5.50;76.30
12688;DHT22;6408;59.388;17.798;2023-04-03T16:16:04;5.40;77.30
12688;DHT22;6408;59.388;17.798;2023-04-03T16:18:34;5.40;77.50
12688;DHT22;6408;59.388;17.798;2023-04-03T16:21:03;5.40;77.50
12688;DHT22;6408;59.388;17.798;2023-04-03T16:23:32;5.30;77.00
12688;DHT22;6408;59.388;17.798;2023-04-03T16:25:59;5.20;78.30
12688;DHT22;6408;59.388;17.798;2023-04-03T16:28:27;5.10;77.80
12688;DHT22;6408;59.388;17.798;2023-04-03T16:30:55;5.00;78.10
12688;DHT22;6408;59.388;17.798;2023-04-03T16:33:22;4.90;79.20
12688;DHT22;6408;59.388;17.798;2023-04-03T16:35:50;4.80;78.40
12688;DHT22;6408;59.388;17.798;2023-04-03T16:38:18;4.80;79.20
12688;DHT22;6408;59.388;17.798;2023-04-03T16:40:49;4.80;78.60
12688;DHT22;6408;59.388;17.798;2023-04-03T16:43:18;4.70;78.80
12688;DHT22;6408;59.388;17.798;2023-04-03T16:45:45;4.70;78.50
12688;DHT22;6408;59.388;17.798;2023-04-03T16:48:13;4.60;79.00
12688;DHT22;6408;59.388;17.798;2023-04-03T16:50:41;4.50;78.90
12688;DHT22;6408;59.388;17.798;2023-04-03T16:53:08;4.50;78.70
12688;DHT22;6408;59.388;17.798;2023-04-03T16:55:36;4.40;78.50
12688;DHT22;6408;59.388;17.798;2023-04-03T16:58:07;4.30;79.10
12688;DHT22;6408;59.388;17.798;2023-04-03T17:00:35;4.40;78.90
12688;DHT22;6408;59.388;17.798;2023-04-03T17:03:03;4.30;79.80
12688;DHT22;6408;59.388;17.798;2023-04-03T17:05:31;4.10;80.00
12688;DHT22;6408;59.388;17.798;2023-04-03T17:07:59;4.10;80.60
12688;DHT22;6408;59.388;17.798;2023-04-03T17:10:28;3.90;81.50
12688;DHT22;6408;59.388;17.798;2023-04-03T17:12:56;3.90;81.80
12688;DHT22;6408;59.388;17.798;2023-04-03T17:15:25;3.80;82.50
12688;DHT22;6408;59.388;17.798;2023-04-03T17:17:53;3.70;82.40
12688;DHT22;6408;59.388;17.798;2023-04-03T17:20:21;3.70;82.90
12688;DHT22;6408;59.388;17.798;2023-04-03T17:22:48;3.60;83.10
12688;DHT22;6408;59.388;17.798;2023-04-03T17:25:16;3.60;83.40
12688;DHT22;6408;59.388;17.798;2023-04-03T17:27:44;3.50;84.00
12688;DHT22;6408;59.388;17.798;2023-04-03T17:30:12;3.40;84.00
12688;DHT22;6408;59.388;17.798;2023-04-03T17:32:44;3.30;83.80
12688;DHT22;6408;59.388;17.798;2023-04-03T17:35:11;3.30;84.30
12688;DHT22;6408;59.388;17.798;2023-04-03T17:37:39;3.40;83.40
12688;DHT22;6408;59.388;17.798;2023-04-03T17:40:08;3.40;83.30
12688;DHT22;6408;59.388;17.798;2023-04-03T17:42:38;3.40;83.40
12688;DHT22;6408;59.388;17.798;2023-04-03T17:45:07;3.30;84.10
12688;DHT22;6408;59.388;17.798;2023-04-03T17:47:35;3.20;84.90
12688;DHT22;6408;59.388;17.798;2023-04-03T17:50:06;3.10;86.10
12688;DHT22;6408;59.388;17.798;2023-04-03T17:52:33;3.10;86.40
12688;DHT22;6408;59.388;17.798;2023-04-03T17:55:01;3.00;86.60
12688;DHT22;6408;59.388;17.798;2023-04-03T17:57:29;2.90;87.70
12688;DHT22;6408;59.388;17.798;2023-04-03T17:59:57;2.90;88.30
12688;DHT22;6408;59.388;17.798;2023-04-03T18:02:24;2.80;89.00
12688;DHT22;6408;59.388;17.798;2023-04-03T18:04:52;2.70;89.90
12688;DHT22;6408;59.388;17.798;2023-04-03T18:07:22;2.60;90.20
12688;DHT22;6408;59.388;17.798;2023-04-03T18:09:50;2.60;90.30
12688;DHT22;6408;59.388;17.798;2023-04-03T18:12:18;2.50;90.50
12688;DHT22;6408;59.388;17.798;2023-04-03T18:14:46;2.40;90.90
12688;DHT22;6408;59.388;17.798;2023-04-03T18:17:14;2.30;91.20
12688;DHT22;6408;59.388;17.798;2023-04-03T18:19:41;2.30;91.40
12688;DHT22;6408;59.388;17.798;2023-04-03T18:22:13;2.20;91.60
12688;DHT22;6408;59.388;17.798;2023-04-03T18:24:44;2.20;92.10
12688;DHT22;6408;59.388;17.798;2023-04-03T18:27:13;2.20;91.80
12688;DHT22;6408;59.388;17.798;2023-04-03T18:29:43;2.10;91.90
12688;DHT22;6408;59.388;17.798;2023-04-03T18:32:13;2.10;92.10
12688;DHT22;6408;59.388;17.798;2023-04-03T18:34:41;2.00;92.50
12688;DHT22;6408;59.388;17.798;2023-04-03T18:37:08;1.90;92.60
12688;DHT22;6408;59.388;17.798;2023-04-03T18:39:36;1.80;93.00
12688;DHT22;6408;59.388;17.798;2023-04-03T18:42:08;1.60;93.30
12688;DHT22;6408;59.388;17.798;2023-04-03T18:44:37;1.60;93.70
12688;DHT22;6408;59.388;17.798;2023-04-03T18:47:05;1.60;93.70
12688;DHT22;6408;59.388;17.798;2023-04-03T18:49:38;1.60;93.80
12688;DHT22;6408;59.388;17.798;2023-04-03T18:52:06;1.60;94.00
12688;DHT22;6408;59.388;17.798;2023-04-03T18:54:34;1.50;94.20
12688;DHT22;6408;59.388;17.798;2023-04-03T18:57:05;1.40;94.30
12688;DHT22;6408;59.388;17.798;2023-04-03T18:59:32;1.40;94.40
12688;DHT22;6408;59.388;17.798;2023-04-03T19:02:00;1.40;94.50
12688;DHT22;6408;59.388;17.798;2023-04-03T19:04:29;1.30;94.80
12688;DHT22;6408;59.388;17.798;2023-04-03T19:06:57;1.20;94.90
12688;DHT22;6408;59.388;17.798;2023-04-03T19:09:28;1.10;94.90
12688;DHT22;6408;59.388;17.798;2023-04-03T19:11:56;1.10;94.80
12688;DHT22;6408;59.388;17.798;2023-04-03T19:14:25;1.00;94.80
12688;DHT22;6408;59.388;17.798;2023-04-03T19:16:52;0.90;95.10
12688;DHT22;6408;59.388;17.798;2023-04-03T19:19:21;0.70;95.20
12688;DHT22;6408;59.388;17.798;2023-04-03T19:21:48;0.60;95.30
12688;DHT22;6408;59.388;17.798;2023-04-03T19:24:16;0.50;95.40
12688;DHT22;6408;59.388;17.798;2023-04-03T19:26:44;0.50;95.20
12688;DHT22;6408;59.388;17.798;2023-04-03T19:29:12;0.50;95.30
12688;DHT22;6408;59.388;17.798;2023-04-03T19:31:41;0.50;95.50
12688;DHT22;6408;59.388;17.798;2023-04-03T19:34:09;0.50;95.40
12688;DHT22;6408;59.388;17.798;2023-04-03T19:36:38;0.50;95.40
12688;DHT22;6408;59.388;17.798;2023-04-03T19:39:06;0.50;95.30
12688;DHT22;6408;59.388;17.798;2023-04-03T19:41:35;0.30;95.80
12688;DHT22;6408;59.388;17.798;2023-04-03T19:44:05;0.30;96.00
12688;DHT22;6408;59.388;17.798;2023-04-03T19:46:35;0.40;95.90
12688;DHT22;6408;59.388;17.798;2023-04-03T19:49:04;0.40;95.50
12688;DHT22;6408;59.388;17.798;2023-04-03T19:51:32;0.40;95.10
12688;DHT22;6408;59.388;17.798;2023-04-03T19:53:59;0.40;95.50
12688;DHT22;6408;59.388;17.798;2023-04-03T19:56:27;0.40;95.80
12688;DHT22;6408;59.388;17.798;2023-04-03T19:58:55;0.20;96.10
12688;DHT22;6408;59.388;17.798;2023-04-03T20:01:23;0.10;96.30
12688;DHT22;6408;59.388;17.798;2023-04-03T20:03:52;0.10;95.80